sensor_id;sensor_type;location;lat;lon;timestamp;P1;durP1;ratioP1;P2;durP2;ratioP2
15216;SDS011;7711;46.634;14.318;2022-10-16T00:01:40;70.87;;;43.90;;
15216;SDS011;7711;46.634;14.318;2022-10-16T00:04:08;79.03;;;43.07;;
15216;SDS011;7711;46.634;14.318;2022-10-16T00:06:36;77.60;;;44.10;;
15216;SDS011;7711;46.634;14.318;2022-10-16T00:09:03;73.07;;;43.70;;
15216;SDS011;7711;46.634;14.318;2022-10-16T00:11:32;80.47;;;44.50;;
15216;SDS011;7711;46.634;14.318;2022-10-16T00:14:03;84.70;;;44.83;;
15216;SDS011;7711;46.634;14.318;2022-10-16T00:16:31;75.37;;;44.93;;
15216;SDS011;7711;46.634;14.318;2022-10-16T00:19:01;78.03;;;44.70;;
15216;SDS011;7711;46.634;14.318;2022-10-16T00:21:29;73.07;;;44.03;;
15216;SDS011;7711;46.634;14.318;2022-10-16T00:23:57;74.83;;;44.53;;
15216;SDS011;7711;46.634;14.318;2022-10-16T00:26:25;77.13;;;45.23;;
15216;SDS011;7711;46.634;14.318;2022-10-16T00:28:55;79.80;;;45.23;;
15216;SDS011;7711;46.634;14.318;2022-10-16T00:31:22;76.03;;;43.67;;
15216;SDS011;7711;46.634;14.318;2022-10-16T00:33:50;77.20;;;44.47;;
15216;SDS011;7711;46.634;14.318;2022-10-16T00:36:18;72.57;;;42.50;;
15216;SDS011;7711;46.634;14.318;2022-10-16T00:38:49;76.53;;;45.27;;
15216;SDS011;7711;46.634;14.318;2022-10-16T00:41:18;76.07;;;44.50;;
15216;SDS011;7711;46.634;14.318;2022-10-16T00:43:45;79.93;;;45.17;;
15216;SDS011;7711;46.634;14.318;2022-10-16T00:46:17;79.10;;;45.33;;
15216;SDS011;7711;46.634;14.318;2022-10-16T00:48:48;75.07;;;44.80;;
15216;SDS011;7711;46.634;14.318;2022-10-16T00:51:19;70.90;;;43.47;;
15216;SDS011;7711;46.634;14.318;2022-10-16T00:53:49;63.87;;;40.57;;
15216;SDS011;7711;46.634;14.318;2022-10-16T00:56:16;68.23;;;42.73;;
15216;SDS011;7711;46.634;14.318;2022-10-16T00:58:44;66.47;;;40.40;;
15216;SDS011;7711;46.634;14.318;2022-10-16T01:01:11;64.93;;;40.90;;
15216;SDS011;7711;46.634;14.318;2022-10-16T01:03:51;69.47;;;42.73;;
15216;SDS011;7711;46.634;14.318;2022-10-16T01:06:20;66.60;;;41.10;;
15216;SDS011;7711;46.634;14.318;2022-10-16T01:09:08;71.37;;;42.40;;
15216;SDS011;7711;46.634;14.318;2022-10-16T01:11:44;74.77;;;42.70;;
15216;SDS011;7711;46.634;14.318;2022-10-16T01:14:19;74.50;;;43.33;;
15216;SDS011;7711;46.634;14.318;2022-10-16T01:16:53;74.80;;;43.47;;
15216;SDS011;7711;46.634;14.318;2022-10-16T01:19:34;75.17;;;43.30;;
15216;SDS011;7711;46.634;14.318;2022-10-16T01:22:10;65.67;;;40.50;;
15216;SDS011;7711;46.634;14.318;2022-10-16T01:24:38;76.40;;;42.33;;
15216;SDS011;7711;46.634;14.318;2022-10-16T01:27:14;71.00;;;40.53;;
15216;SDS011;7711;46.634;14.318;2022-10-16T01:29:48;68.93;;;40.47;;
15216;SDS011;7711;46.634;14.318;2022-10-16T01:32:22;79.97;;;42.93;;
15216;SDS011;7711;46.634;14.318;2022-10-16T01:34:56;152.77;;;46.00;;
15216;SDS011;7711;46.634;14.318;2022-10-16T01:37:29;82.57;;;44.47;;
15216;SDS011;7711;46.634;14.318;2022-10-16T01:40:02;81.03;;;45.17;;
15216;SDS011;7711;46.634;14.318;2022-10-16T01:42:37;88.07;;;43.37;;
15216;SDS011;7711;46.634;14.318;2022-10-16T01:45:08;73.17;;;42.23;;
15216;SDS011;7711;46.634;14.318;2022-10-16T01:47:39;80.00;;;44.83;;
15216;SDS011;7711;46.634;14.318;2022-10-16T01:50:10;80.90;;;43.70;;
15216;SDS011;7711;46.634;14.318;2022-10-16T01:52:39;74.63;;;41.17;;
15216;SDS011;7711;46.634;14.318;2022-10-16T01:55:11;77.30;;;40.47;;
15216;SDS011;7711;46.634;14.318;2022-10-16T01:57:44;102.73;;;42.03;;
15216;SDS011;7711;46.634;14.318;2022-10-16T02:00:14;83.47;;;41.37;;
15216;SDS011;7711;46.634;14.318;2022-10-16T02:02:46;79.93;;;41.90;;
15216;SDS011;7711;46.634;14.318;2022-10-16T02:05:16;82.67;;;39.70;;
15216;SDS011;7711;46.634;14.318;2022-10-16T02:07:47;74.43;;;39.73;;
15216;SDS011;7711;46.634;14.318;2022-10-16T02:10:16;68.73;;;40.27;;
15216;SDS011;7711;46.634;14.318;2022-10-16T02:12:46;62.90;;;37.80;;
15216;SDS011;7711;46.634;14.318;2022-10-16T02:15:16;68.27;;;39.60;;
15216;SDS011;7711;46.634;14.318;2022-10-16T02:17:44;69.47;;;41.27;;
15216;SDS011;7711;46.634;14.318;2022-10-16T02:20:11;77.40;;;40.87;;
15216;SDS011;7711;46.634;14.318;2022-10-16T02:22:39;88.57;;;44.87;;
15216;SDS011;7711;46.634;14.318;2022-10-16T02:25:10;83.13;;;43.30;;
15216;SDS011;7711;46.634;14.318;2022-10-16T02:27:45;71.33;;;42.37;;
15216;SDS011;7711;46.634;14.318;2022-10-16T02:30:19;74.57;;;41.13;;
15216;SDS011;7711;46.634;14.318;2022-10-16T02:32:51;72.30;;;40.67;;
15216;SDS011;7711;46.634;14.318;2022-10-16T02:35:20;84.87;;;41.60;;
15216;SDS011;7711;46.634;14.318;2022-10-16T02:37:49;78.27;;;40.90;;
15216;SDS011;7711;46.634;14.318;2022-10-16T02:40:18;103.27;;;42.70;;
15216;SDS011;7711;46.634;14.318;2022-10-16T02:42:49;73.43;;;39.47;;
15216;SDS011;7711;46.634;14.318;2022-10-16T02:45:18;75.90;;;41.73;;
15216;SDS011;7711;46.634;14.318;2022-10-16T02:47:46;71.67;;;42.60;;
15216;SDS011;7711;46.634;14.318;2022-10-16T02:50:13;76.17;;;42.90;;
15216;SDS011;7711;46.634;14.318;2022-10-16T02:52:40;90.00;;;43.97;;
15216;SDS011;7711;46.634;14.318;2022-10-16T02:55:08;76.80;;;41.33;;
15216;SDS011;7711;46.634;14.318;2022-10-16T02:57:35;65.53;;;40.17;;
15216;SDS011;7711;46.634;14.318;2022-10-16T03:00:08;68.00;;;39.23;;
15216;SDS011;7711;46.634;14.318;2022-10-16T03:02:37;74.10;;;41.43;;
15216;SDS011;7711;46.634;14.318;2022-10-16T03:05:05;78.57;;;41.30;;
15216;SDS011;7711;46.634;14.318;2022-10-16T03:07:32;69.27;;;42.67;;
15216;SDS011;7711;46.634;14.318;2022-10-16T03:09:59;70.50;;;39.90;;
15216;SDS011;7711;46.634;14.318;2022-10-16T03:12:27;71.83;;;40.87;;
15216;SDS011;7711;46.634;14.318;2022-10-16T03:14:55;74.90;;;43.20;;
15216;SDS011;7711;46.634;14.318;2022-10-16T03:17:24;68.30;;;41.50;;
15216;SDS011;7711;46.634;14.318;2022-10-16T03:19:52;65.47;;;38.67;;
15216;SDS011;7711;46.634;14.318;2022-10-16T03:22:19;68.00;;;39.43;;
15216;SDS011;7711;46.634;14.318;2022-10-16T03:24:47;70.90;;;39.67;;
15216;SDS011;7711;46.634;14.318;2022-10-16T03:27:14;73.87;;;37.87;;
15216;SDS011;7711;46.634;14.318;2022-10-16T03:29:43;69.47;;;37.73;;
15216;SDS011;7711;46.634;14.318;2022-10-16T03:32:10;77.00;;;36.40;;
15216;SDS011;7711;46.634;14.318;2022-10-16T03:34:39;63.27;;;35.73;;
15216;SDS011;7711;46.634;14.318;2022-10-16T03:37:06;69.47;;;37.60;;
15216;SDS011;7711;46.634;14.318;2022-10-16T03:39:35;109.47;;;39.27;;
15216;SDS011;7711;46.634;14.318;2022-10-16T03:42:05;77.13;;;38.07;;
15216;SDS011;7711;46.634;14.318;2022-10-16T03:44:32;59.07;;;36.40;;
15216;SDS011;7711;46.634;14.318;2022-10-16T03:46:59;57.53;;;35.50;;
15216;SDS011;7711;46.634;14.318;2022-10-16T03:49:26;53.67;;;33.33;;
15216;SDS011;7711;46.634;14.318;2022-10-16T03:51:55;58.20;;;33.87;;
15216;SDS011;7711;46.634;14.318;2022-10-16T03:54:24;63.83;;;35.10;;
15216;SDS011;7711;46.634;14.318;2022-10-16T03:56:51;58.20;;;34.93;;
15216;SDS011;7711;46.634;14.318;2022-10-16T03:59:18;69.47;;;35.63;;
15216;SDS011;7711;46.634;14.318;2022-10-16T04:01:46;65.07;;;34.63;;
15216;SDS011;7711;46.634;14.318;2022-10-16T04:04:13;61.87;;;34.43;;
15216;SDS011;7711;46.634;14.318;2022-10-16T04:06:40;61.90;;;34.00;;
15216;SDS011;7711;46.634;14.318;2022-10-16T04:09:08;57.40;;;33.07;;
15216;SDS011;7711;46.634;14.318;2022-10-16T04:11:36;68.07;;;32.47;;
15216;SDS011;7711;46.634;14.318;2022-10-16T04:14:04;56.87;;;32.40;;
15216;SDS011;7711;46.634;14.318;2022-10-16T04:16:31;59.37;;;30.53;;
15216;SDS011;7711;46.634;14.318;2022-10-16T04:18:58;51.00;;;30.80;;
15216;SDS011;7711;46.634;14.318;2022-10-16T04:21:25;58.13;;;31.07;;
15216;SDS011;7711;46.634;14.318;2022-10-16T04:23:52;53.57;;;32.93;;
15216;SDS011;7711;46.634;14.318;2022-10-16T04:26:21;57.23;;;32.70;;
15216;SDS011;7711;46.634;14.318;2022-10-16T04:28:48;46.93;;;30.60;;
15216;SDS011;7711;46.634;14.318;2022-10-16T04:31:15;50.33;;;31.33;;
15216;SDS011;7711;46.634;14.318;2022-10-16T04:33:42;53.53;;;31.70;;
15216;SDS011;7711;46.634;14.318;2022-10-16T04:36:10;56.97;;;32.87;;
15216;SDS011;7711;46.634;14.318;2022-10-16T04:38:37;49.00;;;30.93;;
15216;SDS011;7711;46.634;14.318;2022-10-16T04:41:04;54.03;;;31.37;;
15216;SDS011;7711;46.634;14.318;2022-10-16T04:43:33;46.97;;;30.00;;
15216;SDS011;7711;46.634;14.318;2022-10-16T04:46:00;49.17;;;30.80;;
15216;SDS011;7711;46.634;14.318;2022-10-16T04:48:30;48.67;;;32.30;;
15216;SDS011;7711;46.634;14.318;2022-10-16T04:50:57;46.93;;;32.27;;
15216;SDS011;7711;46.634;14.318;2022-10-16T04:53:24;46.10;;;31.53;;
15216;SDS011;7711;46.634;14.318;2022-10-16T04:55:51;55.17;;;33.57;;
15216;SDS011;7711;46.634;14.318;2022-10-16T04:58:18;50.40;;;33.27;;
15216;SDS011;7711;46.634;14.318;2022-10-16T05:00:47;47.23;;;32.90;;
15216;SDS011;7711;46.634;14.318;2022-10-16T05:03:14;45.83;;;31.73;;
15216;SDS011;7711;46.634;14.318;2022-10-16T05:05:42;57.77;;;32.30;;
15216;SDS011;7711;46.634;14.318;2022-10-16T05:08:10;52.30;;;31.83;;
15216;SDS011;7711;46.634;14.318;2022-10-16T05:10:37;58.30;;;34.83;;
15216;SDS011;7711;46.634;14.318;2022-10-16T05:13:04;59.23;;;32.43;;
15216;SDS011;7711;46.634;14.318;2022-10-16T05:15:31;52.37;;;31.80;;
15216;SDS011;7711;46.634;14.318;2022-10-16T05:18:00;49.60;;;33.50;;
15216;SDS011;7711;46.634;14.318;2022-10-16T05:20:27;79.47;;;37.23;;
15216;SDS011;7711;46.634;14.318;2022-10-16T05:22:54;72.73;;;34.90;;
15216;SDS011;7711;46.634;14.318;2022-10-16T05:25:21;72.27;;;34.70;;
15216;SDS011;7711;46.634;14.318;2022-10-16T05:27:49;87.00;;;35.30;;
15216;SDS011;7711;46.634;14.318;2022-10-16T05:30:16;56.90;;;33.57;;
15216;SDS011;7711;46.634;14.318;2022-10-16T05:32:46;59.83;;;34.50;;
15216;SDS011;7711;46.634;14.318;2022-10-16T05:35:15;60.67;;;34.13;;
15216;SDS011;7711;46.634;14.318;2022-10-16T05:37:43;65.40;;;34.47;;
15216;SDS011;7711;46.634;14.318;2022-10-16T05:40:10;46.50;;;31.47;;
15216;SDS011;7711;46.634;14.318;2022-10-16T05:42:38;49.37;;;33.47;;
15216;SDS011;7711;46.634;14.318;2022-10-16T05:45:05;46.83;;;31.13;;
15216;SDS011;7711;46.634;14.318;2022-10-16T05:47:34;51.83;;;32.40;;
15216;SDS011;7711;46.634;14.318;2022-10-16T05:50:02;45.63;;;31.57;;
15216;SDS011;7711;46.634;14.318;2022-10-16T05:52:31;45.57;;;32.00;;
15216;SDS011;7711;46.634;14.318;2022-10-16T05:54:59;49.97;;;31.03;;
15216;SDS011;7711;46.634;14.318;2022-10-16T05:57:26;54.73;;;33.73;;
15216;SDS011;7711;46.634;14.318;2022-10-16T05:59:53;60.13;;;34.40;;
15216;SDS011;7711;46.634;14.318;2022-10-16T06:02:20;59.07;;;32.93;;
15216;SDS011;7711;46.634;14.318;2022-10-16T06:04:48;73.23;;;33.50;;
15216;SDS011;7711;46.634;14.318;2022-10-16T06:07:15;73.90;;;32.70;;
15216;SDS011;7711;46.634;14.318;2022-10-16T06:09:48;92.17;;;34.57;;
15216;SDS011;7711;46.634;14.318;2022-10-16T06:12:15;76.80;;;34.10;;
15216;SDS011;7711;46.634;14.318;2022-10-16T06:14:43;61.37;;;33.47;;
15216;SDS011;7711;46.634;14.318;2022-10-16T06:17:12;59.83;;;32.53;;
15216;SDS011;7711;46.634;14.318;2022-10-16T06:19:41;67.27;;;34.43;;
15216;SDS011;7711;46.634;14.318;2022-10-16T06:22:09;58.00;;;33.07;;
15216;SDS011;7711;46.634;14.318;2022-10-16T06:24:36;54.67;;;32.33;;
15216;SDS011;7711;46.634;14.318;2022-10-16T06:27:05;53.87;;;31.00;;
15216;SDS011;7711;46.634;14.318;2022-10-16T06:29:34;58.03;;;33.17;;
15216;SDS011;7711;46.634;14.318;2022-10-16T06:32:01;51.37;;;31.40;;
15216;SDS011;7711;46.634;14.318;2022-10-16T06:34:29;56.87;;;32.03;;
15216;SDS011;7711;46.634;14.318;2022-10-16T06:36:56;57.87;;;32.30;;
15216;SDS011;7711;46.634;14.318;2022-10-16T06:39:23;45.03;;;31.97;;
15216;SDS011;7711;46.634;14.318;2022-10-16T06:41:50;51.83;;;32.93;;
15216;SDS011;7711;46.634;14.318;2022-10-16T06:44:21;52.73;;;31.73;;
15216;SDS011;7711;46.634;14.318;2022-10-16T06:46:48;40.73;;;29.37;;
15216;SDS011;7711;46.634;14.318;2022-10-16T06:49:15;44.87;;;28.83;;
15216;SDS011;7711;46.634;14.318;2022-10-16T06:51:47;44.87;;;29.87;;
15216;SDS011;7711;46.634;14.318;2022-10-16T06:54:14;40.70;;;29.03;;
15216;SDS011;7711;46.634;14.318;2022-10-16T06:56:43;41.80;;;27.40;;
15216;SDS011;7711;46.634;14.318;2022-10-16T06:59:11;39.73;;;28.53;;
15216;SDS011;7711;46.634;14.318;2022-10-16T07:01:39;39.97;;;28.53;;
15216;SDS011;7711;46.634;14.318;2022-10-16T07:04:10;42.87;;;26.43;;
15216;SDS011;7711;46.634;14.318;2022-10-16T07:06:37;46.23;;;28.47;;
15216;SDS011;7711;46.634;14.318;2022-10-16T07:09:05;40.20;;;26.63;;
15216;SDS011;7711;46.634;14.318;2022-10-16T07:11:33;60.27;;;28.10;;
15216;SDS011;7711;46.634;14.318;2022-10-16T07:14:02;52.70;;;27.80;;
15216;SDS011;7711;46.634;14.318;2022-10-16T07:16:30;40.10;;;28.90;;
15216;SDS011;7711;46.634;14.318;2022-10-16T07:19:00;45.83;;;27.73;;
15216;SDS011;7711;46.634;14.318;2022-10-16T07:21:28;55.63;;;28.60;;
15216;SDS011;7711;46.634;14.318;2022-10-16T07:24:00;44.97;;;30.07;;
15216;SDS011;7711;46.634;14.318;2022-10-16T07:26:28;41.03;;;27.50;;
15216;SDS011;7711;46.634;14.318;2022-10-16T07:28:57;40.90;;;27.27;;
15216;SDS011;7711;46.634;14.318;2022-10-16T07:31:25;41.80;;;27.30;;
15216;SDS011;7711;46.634;14.318;2022-10-16T07:33:53;42.37;;;26.93;;
15216;SDS011;7711;46.634;14.318;2022-10-16T07:36:21;36.87;;;26.40;;
15216;SDS011;7711;46.634;14.318;2022-10-16T07:38:51;37.50;;;28.17;;
15216;SDS011;7711;46.634;14.318;2022-10-16T07:41:18;37.20;;;27.87;;
15216;SDS011;7711;46.634;14.318;2022-10-16T07:43:49;39.57;;;28.43;;
15216;SDS011;7711;46.634;14.318;2022-10-16T07:46:17;36.47;;;27.20;;
15216;SDS011;7711;46.634;14.318;2022-10-16T07:48:45;36.77;;;26.43;;
15216;SDS011;7711;46.634;14.318;2022-10-16T07:51:13;35.40;;;26.40;;
15216;SDS011;7711;46.634;14.318;2022-10-16T07:53:44;38.37;;;26.17;;
15216;SDS011;7711;46.634;14.318;2022-10-16T07:56:11;34.77;;;25.70;;
15216;SDS011;7711;46.634;14.318;2022-10-16T07:58:40;36.27;;;27.70;;
15216;SDS011;7711;46.634;14.318;2022-10-16T08:01:09;33.50;;;25.37;;
15216;SDS011;7711;46.634;14.318;2022-10-16T08:03:38;35.73;;;26.80;;
15216;SDS011;7711;46.634;14.318;2022-10-16T08:06:11;37.83;;;27.37;;
15216;SDS011;7711;46.634;14.318;2022-10-16T08:08:39;39.13;;;27.80;;
15216;SDS011;7711;46.634;14.318;2022-10-16T08:11:08;37.63;;;27.07;;
15216;SDS011;7711;46.634;14.318;2022-10-16T08:13:37;40.30;;;28.23;;
15216;SDS011;7711;46.634;14.318;2022-10-16T08:16:04;37.90;;;28.20;;
15216;SDS011;7711;46.634;14.318;2022-10-16T08:18:33;39.97;;;28.50;;
15216;SDS011;7711;46.634;14.318;2022-10-16T08:21:02;40.00;;;26.17;;
15216;SDS011;7711;46.634;14.318;2022-10-16T08:23:31;39.03;;;26.70;;
15216;SDS011;7711;46.634;14.318;2022-10-16T08:26:01;37.23;;;26.87;;
15216;SDS011;7711;46.634;14.318;2022-10-16T08:28:32;36.27;;;25.30;;
15216;SDS011;7711;46.634;14.318;2022-10-16T08:31:06;35.80;;;25.70;;
15216;SDS011;7711;46.634;14.318;2022-10-16T08:33:37;38.10;;;26.10;;
15216;SDS011;7711;46.634;14.318;2022-10-16T08:36:05;36.40;;;25.93;;
15216;SDS011;7711;46.634;14.318;2022-10-16T08:38:33;33.30;;;25.37;;
15216;SDS011;7711;46.634;14.318;2022-10-16T08:41:10;40.13;;;27.60;;
15216;SDS011;7711;46.634;14.318;2022-10-16T08:43:58;36.30;;;26.63;;
15216;SDS011;7711;46.634;14.318;2022-10-16T08:46:50;39.17;;;27.13;;
15216;SDS011;7711;46.634;14.318;2022-10-16T08:49:26;35.13;;;26.23;;
15216;SDS011;7711;46.634;14.318;2022-10-16T08:51:54;34.43;;;25.80;;
15216;SDS011;7711;46.634;14.318;2022-10-16T08:54:25;35.00;;;26.07;;
15216;SDS011;7711;46.634;14.318;2022-10-16T08:56:56;35.73;;;27.07;;
15216;SDS011;7711;46.634;14.318;2022-10-16T08:59:28;34.37;;;26.57;;
15216;SDS011;7711;46.634;14.318;2022-10-16T09:01:57;36.57;;;27.50;;
15216;SDS011;7711;46.634;14.318;2022-10-16T09:04:34;33.40;;;26.20;;
15216;SDS011;7711;46.634;14.318;2022-10-16T09:07:20;39.93;;;28.43;;
15216;SDS011;7711;46.634;14.318;2022-10-16T09:09:56;34.93;;;26.63;;
15216;SDS011;7711;46.634;14.318;2022-10-16T09:12:43;38.80;;;27.13;;
15216;SDS011;7711;46.634;14.318;2022-10-16T09:15:23;34.60;;;26.87;;
15216;SDS011;7711;46.634;14.318;2022-10-16T09:18:00;36.43;;;28.93;;
15216;SDS011;7711;46.634;14.318;2022-10-16T09:20:42;40.33;;;27.80;;
15216;SDS011;7711;46.634;14.318;2022-10-16T09:23:17;34.83;;;27.07;;
15216;SDS011;7711;46.634;14.318;2022-10-16T09:25:47;39.37;;;27.43;;
15216;SDS011;7711;46.634;14.318;2022-10-16T09:28:16;40.20;;;28.47;;
15216;SDS011;7711;46.634;14.318;2022-10-16T09:30:45;33.37;;;26.70;;
15216;SDS011;7711;46.634;14.318;2022-10-16T09:33:15;35.73;;;27.73;;
15216;SDS011;7711;46.634;14.318;2022-10-16T09:35:48;39.43;;;29.13;;
15216;SDS011;7711;46.634;14.318;2022-10-16T09:38:20;38.33;;;28.93;;
15216;SDS011;7711;46.634;14.318;2022-10-16T09:40:53;37.63;;;28.27;;
15216;SDS011;7711;46.634;14.318;2022-10-16T09:43:23;38.20;;;27.70;;
15216;SDS011;7711;46.634;14.318;2022-10-16T09:45:54;37.60;;;27.40;;
15216;SDS011;7711;46.634;14.318;2022-10-16T09:48:27;36.55;;;26.02;;
15216;SDS011;7711;46.634;14.318;2022-10-16T09:51:03;37.33;;;28.10;;
15216;SDS011;7711;46.634;14.318;2022-10-16T09:53:38;35.10;;;27.92;;
15216;SDS011;7711;46.634;14.318;2022-10-16T09:56:10;39.00;;;27.90;;
15216;SDS011;7711;46.634;14.318;2022-10-16T09:58:43;36.65;;;27.20;;
15216;SDS011;7711;46.634;14.318;2022-10-16T10:01:17;36.75;;;26.80;;
15216;SDS011;7711;46.634;14.318;2022-10-16T10:03:48;36.17;;;26.00;;
15216;SDS011;7711;46.634;14.318;2022-10-16T10:06:25;38.03;;;28.50;;
15216;SDS011;7711;46.634;14.318;2022-10-16T10:09:00;38.75;;;27.55;;
15216;SDS011;7711;46.634;14.318;2022-10-16T10:11:37;39.25;;;28.33;;
15216;SDS011;7711;46.634;14.318;2022-10-16T10:19:51;35.97;;;26.77;;
15216;SDS011;7711;46.634;14.318;2022-10-16T10:22:24;33.00;;;26.65;;
15216;SDS011;7711;46.634;14.318;2022-10-16T10:24:56;32.00;;;25.75;;
15216;SDS011;7711;46.634;14.318;2022-10-16T10:27:31;33.45;;;26.92;;
15216;SDS011;7711;46.634;14.318;2022-10-16T10:30:06;36.50;;;27.17;;
15216;SDS011;7711;46.634;14.318;2022-10-16T10:32:45;35.40;;;25.77;;
15216;SDS011;7711;46.634;14.318;2022-10-16T10:35:22;35.30;;;25.42;;
15216;SDS011;7711;46.634;14.318;2022-10-16T10:38:10;31.33;;;25.10;;
15216;SDS011;7711;46.634;14.318;2022-10-16T10:40:51;31.23;;;25.50;;
15216;SDS011;7711;46.634;14.318;2022-10-16T10:43:38;33.92;;;25.45;;
15216;SDS011;7711;46.634;14.318;2022-10-16T10:46:18;29.08;;;24.80;;
15216;SDS011;7711;46.634;14.318;2022-10-16T10:49:00;31.63;;;25.08;;
15216;SDS011;7711;46.634;14.318;2022-10-16T10:51:39;32.13;;;25.35;;
15216;SDS011;7711;46.634;14.318;2022-10-16T10:54:20;30.73;;;25.02;;
15216;SDS011;7711;46.634;14.318;2022-10-16T10:56:57;29.48;;;23.42;;
15216;SDS011;7711;46.634;14.318;2022-10-16T10:59:32;27.23;;;23.20;;
15216;SDS011;7711;46.634;14.318;2022-10-16T11:02:17;28.63;;;23.23;;
15216;SDS011;7711;46.634;14.318;2022-10-16T11:04:57;30.08;;;23.20;;
15216;SDS011;7711;46.634;14.318;2022-10-16T11:07:45;29.88;;;22.75;;
15216;SDS011;7711;46.634;14.318;2022-10-16T11:10:20;29.55;;;23.55;;
15216;SDS011;7711;46.634;14.318;2022-10-16T11:12:53;27.25;;;23.23;;
15216;SDS011;7711;46.634;14.318;2022-10-16T11:15:29;27.50;;;22.30;;
15216;SDS011;7711;46.634;14.318;2022-10-16T11:18:00;29.83;;;24.33;;
15216;SDS011;7711;46.634;14.318;2022-10-16T11:20:34;30.25;;;22.00;;
15216;SDS011;7711;46.634;14.318;2022-10-16T11:23:11;25.90;;;21.77;;
15216;SDS011;7711;46.634;14.318;2022-10-16T11:25:47;24.75;;;21.58;;
15216;SDS011;7711;46.634;14.318;2022-10-16T11:28:15;30.02;;;22.77;;
15216;SDS011;7711;46.634;14.318;2022-10-16T11:30:47;26.38;;;21.55;;
15216;SDS011;7711;46.634;14.318;2022-10-16T11:33:29;26.42;;;21.98;;
15216;SDS011;7711;46.634;14.318;2022-10-16T11:36:11;28.77;;;23.20;;
15216;SDS011;7711;46.634;14.318;2022-10-16T11:38:43;27.05;;;22.65;;
15216;SDS011;7711;46.634;14.318;2022-10-16T11:41:21;25.52;;;21.27;;
15216;SDS011;7711;46.634;14.318;2022-10-16T11:43:57;26.45;;;21.98;;
15216;SDS011;7711;46.634;14.318;2022-10-16T11:46:36;24.85;;;21.10;;
15216;SDS011;7711;46.634;14.318;2022-10-16T11:49:16;25.38;;;22.63;;
15216;SDS011;7711;46.634;14.318;2022-10-16T11:51:51;25.77;;;22.13;;
15216;SDS011;7711;46.634;14.318;2022-10-16T11:54:28;27.08;;;22.65;;
15216;SDS011;7711;46.634;14.318;2022-10-16T11:57:02;24.83;;;21.27;;
15216;SDS011;7711;46.634;14.318;2022-10-16T11:59:40;23.58;;;20.20;;
15216;SDS011;7711;46.634;14.318;2022-10-16T12:05:18;25.17;;;20.92;;
15216;SDS011;7711;46.634;14.318;2022-10-16T12:07:53;25.35;;;21.13;;
15216;SDS011;7711;46.634;14.318;2022-10-16T12:10:30;22.98;;;20.48;;
15216;SDS011;7711;46.634;14.318;2022-10-16T12:13:04;26.15;;;20.80;;
15216;SDS011;7711;46.634;14.318;2022-10-16T12:15:46;24.38;;;19.95;;
15216;SDS011;7711;46.634;14.318;2022-10-16T12:18:20;21.20;;;18.90;;
15216;SDS011;7711;46.634;14.318;2022-10-16T12:20:54;22.58;;;19.90;;
15216;SDS011;7711;46.634;14.318;2022-10-16T12:23:27;23.20;;;20.05;;
15216;SDS011;7711;46.634;14.318;2022-10-16T12:25:54;22.20;;;18.40;;
15216;SDS011;7711;46.634;14.318;2022-10-16T12:28:30;22.50;;;18.30;;
15216;SDS011;7711;46.634;14.318;2022-10-16T12:30:59;20.77;;;18.58;;
15216;SDS011;7711;46.634;14.318;2022-10-16T12:33:31;22.33;;;19.42;;
15216;SDS011;7711;46.634;14.318;2022-10-16T12:36:02;22.17;;;19.42;;
15216;SDS011;7711;46.634;14.318;2022-10-16T12:38:36;23.80;;;19.58;;
15216;SDS011;7711;46.634;14.318;2022-10-16T12:41:11;21.83;;;18.75;;
15216;SDS011;7711;46.634;14.318;2022-10-16T12:43:42;23.58;;;19.10;;
15216;SDS011;7711;46.634;14.318;2022-10-16T12:46:33;26.10;;;18.75;;
15216;SDS011;7711;46.634;14.318;2022-10-16T12:49:20;20.35;;;17.58;;
15216;SDS011;7711;46.634;14.318;2022-10-16T12:51:50;19.15;;;17.10;;
15216;SDS011;7711;46.634;14.318;2022-10-16T12:54:20;20.98;;;17.30;;
15216;SDS011;7711;46.634;14.318;2022-10-16T12:56:58;18.80;;;16.90;;
15216;SDS011;7711;46.634;14.318;2022-10-16T12:59:38;18.98;;;16.65;;
15216;SDS011;7711;46.634;14.318;2022-10-16T13:02:23;17.85;;;16.05;;
15216;SDS011;7711;46.634;14.318;2022-10-16T13:05:25;17.35;;;15.65;;
15216;SDS011;7711;46.634;14.318;2022-10-16T13:08:05;18.30;;;16.48;;
15216;SDS011;7711;46.634;14.318;2022-10-16T13:10:55;18.15;;;16.35;;
15216;SDS011;7711;46.634;14.318;2022-10-16T13:13:38;18.10;;;16.27;;
15216;SDS011;7711;46.634;14.318;2022-10-16T13:16:30;20.13;;;16.05;;
15216;SDS011;7711;46.634;14.318;2022-10-16T13:19:11;17.48;;;15.88;;
15216;SDS011;7711;46.634;14.318;2022-10-16T13:21:55;18.02;;;16.33;;
15216;SDS011;7711;46.634;14.318;2022-10-16T13:24:49;18.60;;;16.70;;
15216;SDS011;7711;46.634;14.318;2022-10-16T13:27:34;17.98;;;16.38;;
15216;SDS011;7711;46.634;14.318;2022-10-16T13:30:09;17.70;;;16.00;;
15216;SDS011;7711;46.634;14.318;2022-10-16T13:32:44;17.42;;;15.73;;
15216;SDS011;7711;46.634;14.318;2022-10-16T13:35:23;17.77;;;16.00;;
15216;SDS011;7711;46.634;14.318;2022-10-16T13:40:50;18.08;;;16.33;;
15216;SDS011;7711;46.634;14.318;2022-10-16T13:43:32;18.83;;;16.38;;
15216;SDS011;7711;46.634;14.318;2022-10-16T13:46:05;17.42;;;15.70;;
15216;SDS011;7711;46.634;14.318;2022-10-16T13:48:38;18.52;;;16.70;;
15216;SDS011;7711;46.634;14.318;2022-10-16T13:51:11;17.67;;;16.08;;
15216;SDS011;7711;46.634;14.318;2022-10-16T13:53:40;17.00;;;15.23;;
15216;SDS011;7711;46.634;14.318;2022-10-16T13:56:11;17.05;;;15.45;;
15216;SDS011;7711;46.634;14.318;2022-10-16T14:01:40;18.02;;;16.33;;
15216;SDS011;7711;46.634;14.318;2022-10-16T14:04:12;17.33;;;15.73;;
15216;SDS011;7711;46.634;14.318;2022-10-16T14:06:42;17.92;;;16.27;;
15216;SDS011;7711;46.634;14.318;2022-10-16T14:09:26;17.85;;;16.23;;
15216;SDS011;7711;46.634;14.318;2022-10-16T14:11:56;17.27;;;15.68;;
15216;SDS011;7711;46.634;14.318;2022-10-16T14:14:31;17.20;;;15.50;;
15216;SDS011;7711;46.634;14.318;2022-10-16T14:17:01;18.02;;;16.42;;
15216;SDS011;7711;46.634;14.318;2022-10-16T14:19:37;17.15;;;15.60;;
15216;SDS011;7711;46.634;14.318;2022-10-16T14:22:26;16.27;;;14.77;;
15216;SDS011;7711;46.634;14.318;2022-10-16T14:25:20;17.45;;;15.85;;
15216;SDS011;7711;46.634;14.318;2022-10-16T14:27:59;17.33;;;15.68;;
15216;SDS011;7711;46.634;14.318;2022-10-16T14:30:33;17.25;;;15.48;;
15216;SDS011;7711;46.634;14.318;2022-10-16T14:33:20;18.00;;;16.02;;
15216;SDS011;7711;46.634;14.318;2022-10-16T14:36:03;17.40;;;15.70;;
15216;SDS011;7711;46.634;14.318;2022-10-16T14:38:38;17.77;;;15.57;;
15216;SDS011;7711;46.634;14.318;2022-10-16T14:41:08;17.25;;;15.52;;
15216;SDS011;7711;46.634;14.318;2022-10-16T14:43:50;17.92;;;16.15;;
15216;SDS011;7711;46.634;14.318;2022-10-16T14:46:21;15.85;;;14.40;;
15216;SDS011;7711;46.634;14.318;2022-10-16T14:48:57;16.10;;;14.50;;
15216;SDS011;7711;46.634;14.318;2022-10-16T14:51:28;16.92;;;15.32;;
15216;SDS011;7711;46.634;14.318;2022-10-16T14:53:56;17.85;;;16.15;;
15216;SDS011;7711;46.634;14.318;2022-10-16T14:56:25;18.20;;;16.40;;
15216;SDS011;7711;46.634;14.318;2022-10-16T14:58:57;19.10;;;16.92;;
15216;SDS011;7711;46.634;14.318;2022-10-16T15:01:26;20.35;;;17.15;;
15216;SDS011;7711;46.634;14.318;2022-10-16T15:03:55;21.42;;;16.40;;